createdAt,value
2023-04-29T00:01:20.985Z,11.13
2023-04-29T00:03:47.832Z,12.35
2023-04-29T00:06:15.445Z,11.13
2023-04-29T00:08:42.426Z,11.05
2023-04-29T00:11:11.509Z,11.57
2023-04-29T00:13:40.949Z,12.93
2023-04-29T00:16:08.837Z,10.95
2023-04-29T00:18:36.549Z,11.25
2023-04-29T00:21:06.047Z,11.10
2023-04-29T00:23:33.762Z,11.07
2023-04-29T00:26:00.974Z,9.98
2023-04-29T00:28:27.930Z,10.70
2023-04-29T00:30:56.106Z,11.18
2023-04-29T00:33:23.117Z,11.27
2023-04-29T00:35:50.416Z,11.70
2023-04-29T00:38:17.306Z,10.88
2023-04-29T00:40:44.781Z,10.30
2023-04-29T00:43:11.608Z,11.05
2023-04-29T00:45:38.638Z,10.75
2023-04-29T00:48:05.528Z,10.35
2023-04-29T00:50:32.783Z,11.80
2023-04-29T00:53:00.224Z,10.02
2023-04-29T00:55:27.292Z,10.10
2023-04-29T00:57:54.063Z,10.20
2023-04-29T01:00:21.294Z,10.15
2023-04-29T01:02:48.240Z,9.52
2023-04-29T01:05:15.500Z,10.07
2023-04-29T01:08:07.006Z,10.80
2023-04-29T01:10:41.746Z,10.30
2023-04-29T01:13:14.398Z,9.50
2023-04-29T01:15:48.157Z,9.90
2023-04-29T01:18:27.008Z,9.32
2023-04-29T01:20:54.019Z,9.40
2023-04-29T01:23:20.839Z,10.93
2023-04-29T01:25:49.122Z,8.70
2023-04-29T01:28:35.858Z,9.45
2023-04-29T01:31:25.975Z,9.05
2023-04-29T01:34:09.604Z,8.40
2023-04-29T01:37:01.535Z,8.90
2023-04-29T01:39:47.087Z,8.90
2023-04-29T01:42:25.252Z,9.27
2023-04-29T01:44:52.230Z,8.70
2023-04-29T01:47:19.194Z,8.45
2023-04-29T01:49:46.934Z,8.50
2023-04-29T01:52:13.944Z,7.70
2023-04-29T01:54:40.746Z,7.80
2023-04-29T01:57:07.852Z,8.10
2023-04-29T01:59:34.642Z,7.93
2023-04-29T02:02:01.715Z,7.65
2023-04-29T02:04:28.758Z,7.03
2023-04-29T02:06:55.866Z,7.65
2023-04-29T02:09:22.545Z,6.65
2023-04-29T02:11:49.520Z,8.13
2023-04-29T02:14:16.238Z,7.40
2023-04-29T02:16:46.497Z,6.05
2023-04-29T02:19:13.356Z,6.68
2023-04-29T02:21:40.347Z,5.95
2023-04-29T02:24:07.183Z,7.07
2023-04-29T02:26:34.533Z,7.28
2023-04-29T02:29:01.655Z,7.07
2023-04-29T02:31:29.351Z,7.75
2023-04-29T02:33:56.148Z,8.30
2023-04-29T02:36:23.993Z,8.50
2023-04-29T02:38:50.882Z,7.60
2023-04-29T02:41:18.263Z,7.32
2023-04-29T02:43:45.157Z,7.53
2023-04-29T02:46:12.314Z,7.22
2023-04-29T02:48:39.134Z,8.40
2023-04-29T02:51:06.677Z,6.85
2023-04-29T02:53:33.480Z,7.47
2023-04-29T02:56:00.491Z,7.90
2023-04-29T02:58:27.350Z,7.60
2023-04-29T03:00:54.400Z,6.97
2023-04-29T03:03:21.345Z,7.50
2023-04-29T03:05:48.568Z,7.50
2023-04-29T03:08:15.802Z,7.57
2023-04-29T03:10:43.085Z,7.68
2023-04-29T03:13:09.896Z,7.35
2023-04-29T03:15:37.027Z,7.28
2023-04-29T03:18:05.011Z,7.72
2023-04-29T03:20:32.736Z,7.43
2023-04-29T03:23:00.964Z,6.68
2023-04-29T03:25:28.676Z,6.57
2023-04-29T03:27:55.414Z,8.02
2023-04-29T03:30:22.436Z,6.68
2023-04-29T03:32:49.250Z,6.88
2023-04-29T03:35:16.306Z,6.78
2023-04-29T03:37:44.709Z,7.97
2023-04-29T03:40:12.815Z,6.82
2023-04-29T03:42:39.624Z,6.57
2023-04-29T03:45:07.235Z,6.43
2023-04-29T03:47:34.228Z,7.05
2023-04-29T03:50:01.322Z,6.53
2023-04-29T03:52:28.405Z,7.18
2023-04-29T03:54:55.367Z,7.15
2023-04-29T03:57:22.156Z,7.10
2023-04-29T03:59:50.641Z,7.10
2023-04-29T04:02:17.986Z,7.00
2023-04-29T04:04:45.629Z,6.72
2023-04-29T04:07:12.542Z,6.65
2023-04-29T04:09:39.649Z,6.25
2023-04-29T04:12:06.565Z,7.25
2023-04-29T04:14:34.484Z,7.32
2023-04-29T04:17:01.572Z,7.45
2023-04-29T04:19:30.575Z,6.90
2023-04-29T04:21:57.360Z,6.20
2023-04-29T04:24:24.411Z,6.32
2023-04-29T04:26:51.135Z,6.57
2023-04-29T04:29:18.220Z,6.43
2023-04-29T04:31:46.997Z,6.55
2023-04-29T04:34:14.385Z,6.47
2023-04-29T04:36:41.598Z,6.32
2023-04-29T04:39:08.620Z,6.80
2023-04-29T04:41:35.675Z,6.78
2023-04-29T04:44:03.167Z,6.43
2023-04-29T04:46:29.940Z,6.78
2023-04-29T04:48:56.938Z,6.22
2023-04-29T04:51:23.703Z,6.65
2023-04-29T04:53:50.745Z,6.60
2023-04-29T04:56:17.436Z,7.25
2023-04-29T04:58:44.409Z,8.10
2023-04-29T05:01:11.459Z,7.20
2023-04-29T05:03:38.778Z,7.38
2023-04-29T05:06:05.807Z,6.18
2023-04-29T05:08:32.814Z,6.72
2023-04-29T05:10:59.613Z,6.45
2023-04-29T05:13:26.839Z,6.80
2023-04-29T05:15:53.875Z,7.25
2023-04-29T05:18:21.058Z,6.85
2023-04-29T05:20:47.752Z,6.70
2023-04-29T05:23:14.952Z,6.47
2023-04-29T05:25:42.526Z,6.85
2023-04-29T05:28:09.545Z,7.45
2023-04-29T05:30:37.809Z,6.05
2023-04-29T05:33:05.096Z,7.18
2023-04-29T05:35:32.212Z,6.85
2023-04-29T05:37:59.238Z,7.53
2023-04-29T05:40:26.128Z,8.30
2023-04-29T05:42:53.247Z,7.97
2023-04-29T05:45:19.932Z,8.52
2023-04-29T05:47:47.050Z,8.15
2023-04-29T05:50:13.746Z,8.65
2023-04-29T05:52:40.831Z,8.98
2023-04-29T05:55:07.789Z,8.35
2023-04-29T05:57:34.806Z,8.63
2023-04-29T06:00:01.814Z,8.82
2023-04-29T06:02:28.971Z,8.35
2023-04-29T06:04:56.027Z,7.90
2023-04-29T06:07:23.448Z,7.80
2023-04-29T06:09:50.665Z,8.95
2023-04-29T06:12:17.851Z,8.73
2023-04-29T06:14:44.667Z,8.68
2023-04-29T06:17:12.413Z,8.65
2023-04-29T06:19:39.085Z,7.75
2023-04-29T06:22:06.102Z,8.48
2023-04-29T06:24:32.832Z,8.75
2023-04-29T06:26:59.849Z,8.18
2023-04-29T06:29:26.807Z,8.77
2023-04-29T06:31:54.354Z,8.30
2023-04-29T06:34:21.169Z,8.68
2023-04-29T06:36:48.224Z,8.23
2023-04-29T06:39:15.171Z,8.27
2023-04-29T06:41:42.166Z,8.32
2023-04-29T06:44:09.157Z,9.10
2023-04-29T06:46:36.238Z,9.00
2023-04-29T06:49:02.987Z,8.60
2023-04-29T06:51:30.064Z,8.73
2023-04-29T06:53:56.834Z,8.23
2023-04-29T06:56:23.940Z,8.55
2023-04-29T06:58:50.723Z,8.27
2023-04-29T07:01:17.921Z,8.23
2023-04-29T07:03:45.340Z,8.05
2023-04-29T07:06:12.658Z,8.40
2023-04-29T07:08:39.496Z,8.55
2023-04-29T07:11:06.497Z,8.75
2023-04-29T07:13:33.405Z,8.80
2023-04-29T07:16:00.482Z,8.13
2023-04-29T07:18:27.181Z,7.65
2023-04-29T07:20:55.822Z,7.72
2023-04-29T07:23:22.595Z,8.38
2023-04-29T07:25:49.626Z,7.00
2023-04-29T07:28:16.421Z,8.20
2023-04-29T07:30:43.434Z,7.00
2023-04-29T07:33:10.268Z,7.35
2023-04-29T07:35:37.386Z,7.53
2023-04-29T07:38:04.178Z,7.43
2023-04-29T07:40:31.231Z,6.55
2023-04-29T07:42:58.021Z,6.22
2023-04-29T07:45:25.060Z,6.80
2023-04-29T07:47:52.049Z,6.47
2023-04-29T07:50:19.276Z,6.50
2023-04-29T07:52:45.971Z,5.97
2023-04-29T07:55:13.074Z,5.70
2023-04-29T07:57:39.882Z,5.45
2023-04-29T08:00:07.654Z,5.35
2023-04-29T08:02:34.615Z,4.82
2023-04-29T08:05:03.238Z,5.68
2023-04-29T08:07:30.433Z,5.00
2023-04-29T08:09:57.610Z,4.43
2023-04-29T08:12:24.364Z,5.53
2023-04-29T08:14:51.506Z,5.05
2023-04-29T08:17:18.336Z,4.90
2023-04-29T08:19:45.933Z,5.00
2023-04-29T08:22:14.215Z,5.00
2023-04-29T08:24:42.836Z,5.00
2023-04-29T08:27:09.597Z,4.90
2023-04-29T08:29:36.717Z,4.93
2023-04-29T08:32:03.514Z,4.97
2023-04-29T08:34:31.861Z,4.85
2023-04-29T08:36:58.611Z,5.50
2023-04-29T08:39:26.116Z,5.50
2023-04-29T08:41:54.126Z,4.82
2023-04-29T08:44:21.634Z,5.13
2023-04-29T08:46:48.399Z,5.95
2023-04-29T08:49:15.408Z,4.70
2023-04-29T08:51:42.171Z,4.53
2023-04-29T08:54:09.487Z,4.60
2023-04-29T08:56:36.307Z,5.00
2023-04-29T08:59:04.327Z,4.90
2023-04-29T09:01:31.188Z,4.55
2023-04-29T09:04:31.180Z,4.80
2023-04-29T09:06:58.344Z,4.90
2023-04-29T09:09:25.483Z,4.85
2023-04-29T09:11:52.460Z,5.65
2023-04-29T09:14:19.539Z,5.20
2023-04-29T09:16:47.184Z,5.15
2023-04-29T09:19:35.269Z,4.88
2023-04-29T09:22:02.983Z,4.53
2023-04-29T09:24:30.945Z,4.90
2023-04-29T09:26:58.790Z,4.93
2023-04-29T09:29:25.941Z,5.03
2023-04-29T09:31:57.707Z,4.43
2023-04-29T09:34:37.379Z,4.95
2023-04-29T09:37:04.171Z,5.28
2023-04-29T09:39:38.865Z,4.85
2023-04-29T09:42:06.351Z,4.70
2023-04-29T09:44:35.992Z,5.57
2023-04-29T09:47:07.381Z,5.25
2023-04-29T09:49:40.832Z,5.00
2023-04-29T09:52:08.875Z,5.15
2023-04-29T09:54:36.652Z,5.47
2023-04-29T09:57:06.102Z,5.65
2023-04-29T09:59:37.534Z,4.85
2023-04-29T10:02:17.814Z,4.70
2023-04-29T10:04:46.563Z,5.20
2023-04-29T10:07:17.144Z,5.43
2023-04-29T10:09:45.201Z,5.78
2023-04-29T10:12:11.957Z,5.72
2023-04-29T10:14:50.389Z,5.88
2023-04-29T10:17:20.187Z,6.22
2023-04-29T10:19:56.023Z,6.15
2023-04-29T10:22:34.589Z,5.00
2023-04-29T10:25:02.277Z,5.90
2023-04-29T10:27:29.606Z,5.63
2023-04-29T10:29:56.998Z,5.63
2023-04-29T10:32:23.905Z,5.60
2023-04-29T10:34:51.769Z,5.55
2023-04-29T10:37:18.578Z,5.38
2023-04-29T10:39:53.486Z,6.88
2023-04-29T10:42:44.559Z,5.50
2023-04-29T10:45:24.660Z,5.50
2023-04-29T10:48:08.450Z,6.22
2023-04-29T10:50:49.068Z,6.93
2023-04-29T10:53:19.380Z,6.28
2023-04-29T10:55:59.931Z,7.90
2023-04-29T10:58:45.633Z,6.85
2023-04-29T11:01:17.007Z,6.95
2023-04-29T11:03:55.870Z,6.95
2023-04-29T11:06:25.206Z,7.20
2023-04-29T11:09:05.022Z,6.93
2023-04-29T11:12:04.191Z,6.53
2023-04-29T11:14:36.972Z,5.78
2023-04-29T11:17:05.774Z,5.65
2023-04-29T11:19:33.654Z,6.10
2023-04-29T11:22:10.332Z,5.82
2023-04-29T11:24:37.143Z,5.60
2023-04-29T11:27:07.329Z,5.35
2023-04-29T11:29:34.478Z,4.70
2023-04-29T11:32:04.594Z,5.45
2023-04-29T11:34:31.651Z,4.88
2023-04-29T11:36:58.410Z,4.18
2023-04-29T11:39:25.425Z,4.22
2023-04-29T11:41:52.832Z,4.47
2023-04-29T11:44:23.250Z,4.43
2023-04-29T11:46:50.022Z,4.45
2023-04-29T11:49:17.003Z,4.60
2023-04-29T11:51:43.746Z,4.03
2023-04-29T11:54:10.821Z,4.38
2023-04-29T11:56:38.303Z,4.40
2023-04-29T11:59:08.210Z,3.88
2023-04-29T12:01:36.144Z,4.13
2023-04-29T12:04:05.091Z,4.00
2023-04-29T12:06:32.161Z,4.25
2023-04-29T12:09:00.596Z,4.45
2023-04-29T12:11:28.249Z,4.22
2023-04-29T12:13:55.469Z,4.47
2023-04-29T12:16:24.149Z,4.15
2023-04-29T12:18:52.634Z,4.43
2023-04-29T12:21:19.346Z,4.03
2023-04-29T12:23:46.617Z,4.10
2023-04-29T12:26:13.873Z,3.58
2023-04-29T12:28:42.229Z,4.78
2023-04-29T12:31:09.746Z,3.88
2023-04-29T12:33:37.470Z,4.78
2023-04-29T12:36:04.500Z,4.65
2023-04-29T12:38:31.598Z,4.45
2023-04-29T12:40:59.318Z,4.00
2023-04-29T12:43:30.452Z,4.55
2023-04-29T12:46:10.653Z,4.20
2023-04-29T12:48:43.973Z,4.50
2023-04-29T12:51:11.665Z,4.05
2023-04-29T12:53:39.142Z,4.63
2023-04-29T12:56:06.579Z,3.17
2023-04-29T12:58:34.884Z,4.40
2023-04-29T13:01:01.803Z,3.63
2023-04-29T13:03:29.107Z,4.10
2023-04-29T13:05:56.072Z,3.80
2023-04-29T13:08:23.229Z,3.75
2023-04-29T13:10:50.104Z,3.85
2023-04-29T13:13:17.213Z,3.60
2023-04-29T13:15:44.189Z,3.67
2023-04-29T13:18:11.382Z,3.70
2023-04-29T13:20:41.451Z,4.88
2023-04-29T13:23:09.680Z,6.07
2023-04-29T13:25:36.517Z,6.03
2023-04-29T13:28:05.523Z,4.90
2023-04-29T13:30:33.202Z,4.95
2023-04-29T13:33:08.356Z,4.82
2023-04-29T13:35:40.255Z,4.85
2023-04-29T13:38:08.425Z,4.63
2023-04-29T13:40:39.231Z,4.07
2023-04-29T13:43:09.812Z,4.60
2023-04-29T13:45:39.914Z,6.40
2023-04-29T13:48:20.814Z,5.47
2023-04-29T14:01:05.853Z,11.68
2023-04-29T14:03:39.699Z,21.65
2023-04-29T14:06:07.350Z,36.00
2023-04-29T14:08:34.472Z,26.70
2023-04-29T14:11:01.279Z,23.48
2023-04-29T14:13:29.352Z,16.52
2023-04-29T14:15:56.762Z,17.92
2023-04-29T14:18:23.920Z,18.02
2023-04-29T14:20:50.610Z,14.52
2023-04-29T14:23:17.614Z,11.93
2023-04-29T14:25:44.384Z,10.68
2023-04-29T14:28:11.449Z,8.07
2023-04-29T14:30:38.165Z,7.30
2023-04-29T14:33:05.524Z,7.40
2023-04-29T14:35:32.405Z,6.53
2023-04-29T14:37:59.429Z,6.90
2023-04-29T14:40:26.283Z,5.50
2023-04-29T14:42:53.361Z,5.28
2023-04-29T14:45:20.121Z,5.25
2023-04-29T14:47:47.303Z,5.20
2023-04-29T14:50:14.109Z,4.80
2023-04-29T14:52:41.167Z,4.95
2023-04-29T14:55:09.124Z,4.85
2023-04-29T14:57:36.171Z,4.82
2023-04-29T15:00:03.828Z,4.65
2023-04-29T15:02:31.117Z,3.95
2023-04-29T15:04:57.904Z,5.10
2023-04-29T15:07:24.920Z,4.13
2023-04-29T15:09:51.715Z,3.97
2023-04-29T15:12:20.001Z,4.53
2023-04-29T15:14:47.611Z,4.38
2023-04-29T15:17:14.646Z,4.57
2023-04-29T15:19:41.461Z,4.53
2023-04-29T15:22:08.494Z,4.70
2023-04-29T15:24:35.294Z,4.25
2023-04-29T15:27:03.210Z,4.75
2023-04-29T15:29:32.518Z,4.70
2023-04-29T15:31:59.610Z,4.53
2023-04-29T15:34:26.455Z,4.57
2023-04-29T15:36:53.586Z,5.00
2023-04-29T15:39:20.367Z,5.07
2023-04-29T15:41:48.307Z,4.72
2023-04-29T15:44:15.136Z,4.78
2023-04-29T15:46:42.256Z,4.72
2023-04-29T15:49:08.973Z,4.32
2023-04-29T15:51:35.972Z,5.32
2023-04-29T15:54:02.758Z,4.88
2023-04-29T15:56:30.535Z,4.88
2023-04-29T15:58:57.235Z,5.22
2023-04-29T16:01:24.357Z,6.95
2023-04-29T16:03:51.356Z,7.50
2023-04-29T16:06:18.472Z,9.35
2023-04-29T16:08:45.866Z,10.05
2023-04-29T16:11:12.916Z,12.38
2023-04-29T16:13:39.600Z,11.70
2023-04-29T16:16:07.036Z,11.52
2023-04-29T16:18:33.936Z,12.20
2023-04-29T16:21:01.245Z,12.45
2023-04-29T16:23:28.508Z,12.32
2023-04-29T16:25:55.936Z,12.57
2023-04-29T16:28:22.952Z,12.50
2023-04-29T16:30:50.164Z,11.50
2023-04-29T16:33:16.889Z,11.65
2023-04-29T16:35:43.895Z,12.35
2023-04-29T16:38:10.681Z,11.55
2023-04-29T16:40:37.809Z,12.05
2023-04-29T16:43:04.589Z,11.13
2023-04-29T16:45:31.650Z,11.05
2023-04-29T16:47:58.580Z,11.20
2023-04-29T16:50:27.000Z,11.73
2023-04-29T16:52:53.771Z,11.57
2023-04-29T16:55:20.828Z,11.73
2023-04-29T16:57:47.593Z,12.50
2023-04-29T17:00:14.944Z,11.63
2023-04-29T17:02:43.049Z,11.68
2023-04-29T17:05:11.047Z,11.80
2023-04-29T17:07:38.008Z,11.52
2023-04-29T17:10:06.157Z,11.63
2023-04-29T17:12:33.419Z,11.27
2023-04-29T17:15:00.640Z,10.98
2023-04-29T17:17:27.442Z,11.00
2023-04-29T17:19:55.669Z,11.15
2023-04-29T17:22:22.769Z,12.20
2023-04-29T17:24:50.879Z,11.40
2023-04-29T17:27:17.936Z,11.68
2023-04-29T17:29:45.260Z,11.02
2023-04-29T17:32:14.939Z,10.40
2023-04-29T17:34:42.103Z,10.27
2023-04-29T17:37:09.314Z,10.48
2023-04-29T17:39:36.374Z,9.57
2023-04-29T17:42:03.195Z,9.38
2023-04-29T17:44:30.601Z,8.95
2023-04-29T17:46:57.411Z,9.55
2023-04-29T17:49:25.004Z,9.00
2023-04-29T17:51:52.504Z,9.50
2023-04-29T17:54:19.637Z,8.80
2023-04-29T17:56:46.531Z,8.93
2023-04-29T17:59:13.628Z,9.20
2023-04-29T18:01:40.746Z,8.50
2023-04-29T18:04:08.097Z,7.63
2023-04-29T18:06:35.065Z,7.63
2023-04-29T18:09:02.254Z,7.93
2023-04-29T18:11:29.376Z,7.20
2023-04-29T18:13:56.496Z,7.38
2023-04-29T18:16:23.371Z,7.40
2023-04-29T18:18:56.647Z,7.05
2023-04-29T18:21:27.628Z,6.78
2023-04-29T18:23:55.289Z,6.20
2023-04-29T18:26:22.335Z,6.07
2023-04-29T18:28:49.649Z,6.03
2023-04-29T18:31:16.710Z,5.55
2023-04-29T18:33:44.088Z,6.03
2023-04-29T18:36:11.162Z,6.68
2023-04-29T18:38:38.287Z,6.82
2023-04-29T18:41:06.683Z,6.53
2023-04-29T18:43:33.920Z,7.18
2023-04-29T18:46:00.887Z,7.07
2023-04-29T18:48:30.378Z,6.93
2023-04-29T18:50:59.954Z,6.40
2023-04-29T18:53:27.073Z,5.88
2023-04-29T18:55:53.910Z,5.93
2023-04-29T18:58:21.535Z,5.72
2023-04-29T19:00:48.681Z,5.15
2023-04-29T19:03:17.601Z,4.80
2023-04-29T19:05:45.390Z,5.03
2023-04-29T19:08:16.303Z,4.28
2023-04-29T19:10:44.218Z,3.78
2023-04-29T19:13:11.609Z,4.25
2023-04-29T19:15:39.086Z,3.65
2023-04-29T19:18:06.359Z,3.92
2023-04-29T19:20:33.258Z,3.65
2023-04-29T19:23:00.922Z,3.72
2023-04-29T19:25:27.849Z,3.22
2023-04-29T19:27:55.050Z,3.70
2023-04-29T19:30:21.988Z,3.60
2023-04-29T19:32:49.311Z,3.65
2023-04-29T19:35:16.193Z,3.58
2023-04-29T19:37:44.256Z,3.20
2023-04-29T19:40:11.438Z,3.13
2023-04-29T19:42:39.310Z,3.13
2023-04-29T19:45:07.783Z,2.78
2023-04-29T19:47:35.211Z,3.33
2023-04-29T19:50:02.341Z,2.70
2023-04-29T19:52:29.950Z,3.78
2023-04-29T19:54:57.125Z,3.60
2023-04-29T19:57:24.312Z,4.00
2023-04-29T19:59:51.278Z,4.22
2023-04-29T20:02:19.238Z,4.18
2023-04-29T20:04:46.220Z,4.05
2023-04-29T20:07:13.261Z,4.15
2023-04-29T20:09:40.305Z,4.18
2023-04-29T20:12:07.388Z,4.38
2023-04-29T20:14:34.372Z,4.25
2023-04-29T20:17:01.684Z,4.03
2023-04-29T20:19:28.962Z,4.10
2023-04-29T20:21:58.893Z,5.03
2023-04-29T20:24:25.771Z,4.45
2023-04-29T20:26:52.855Z,5.03
2023-04-29T20:29:19.641Z,4.90
2023-04-29T20:31:46.876Z,5.47
2023-04-29T20:34:13.718Z,4.45
2023-04-29T20:36:40.892Z,4.78
2023-04-29T20:39:09.344Z,4.55
2023-04-29T20:41:36.613Z,5.13
2023-04-29T20:44:03.650Z,5.93
2023-04-29T20:46:30.827Z,5.60
2023-04-29T20:48:57.746Z,5.88
2023-04-29T20:51:25.019Z,5.30
2023-04-29T20:53:52.055Z,5.97
2023-04-29T20:56:19.251Z,6.13
2023-04-29T20:58:46.107Z,5.38
2023-04-29T21:01:13.331Z,6.63
2023-04-29T21:03:40.666Z,6.43
2023-04-29T21:06:07.897Z,6.90
2023-04-29T21:08:34.646Z,7.13
2023-04-29T21:11:01.909Z,6.65
2023-04-29T21:13:28.689Z,7.00
2023-04-29T21:15:55.811Z,8.65
2023-04-29T21:18:22.740Z,7.22
2023-04-29T21:20:49.882Z,7.40
2023-04-29T21:23:16.725Z,7.97
2023-04-29T21:25:43.949Z,8.02
2023-04-29T21:28:10.890Z,9.90
2023-04-29T21:30:37.912Z,9.27
2023-04-29T21:33:05.006Z,9.10
2023-04-29T21:35:32.185Z,8.38
2023-04-29T21:37:59.016Z,8.75
2023-04-29T21:40:26.697Z,7.32
2023-04-29T21:42:55.374Z,7.68
2023-04-29T21:45:22.416Z,6.57
2023-04-29T21:47:49.170Z,6.82
2023-04-29T21:50:16.251Z,6.13
2023-04-29T21:52:43.043Z,6.75
2023-04-29T21:55:10.215Z,6.45
2023-04-29T21:57:44.468Z,5.72
2023-04-29T22:02:54.932Z,5.07
2023-04-29T22:05:22.009Z,5.25
2023-04-29T22:07:48.793Z,5.65
2023-04-29T22:10:16.023Z,4.78
2023-04-29T22:12:42.786Z,5.57
2023-04-29T22:15:21.041Z,6.10
2023-04-29T22:17:54.877Z,5.17
2023-04-29T22:20:21.879Z,5.43
2023-04-29T22:22:48.655Z,5.57
2023-04-29T22:25:15.726Z,5.07
2023-04-29T22:27:42.444Z,5.80
2023-04-29T22:30:09.880Z,6.03
2023-04-29T22:32:36.651Z,5.75
2023-04-29T22:35:04.152Z,5.47
2023-04-29T22:37:30.853Z,6.13
2023-04-29T22:39:57.854Z,5.82
2023-04-29T22:42:24.676Z,6.45
2023-04-29T22:44:51.704Z,6.30
2023-04-29T22:47:18.418Z,6.32
2023-04-29T22:49:45.463Z,6.75
2023-04-29T22:52:12.243Z,7.35
2023-04-29T22:54:40.418Z,7.18
2023-04-29T22:57:07.511Z,7.47
2023-04-29T22:59:34.497Z,7.45
2023-04-29T23:02:01.246Z,7.95
2023-04-29T23:04:28.504Z,7.57
2023-04-29T23:06:55.189Z,8.57
2023-04-29T23:09:22.205Z,8.15
2023-04-29T23:11:49.029Z,9.20
2023-04-29T23:14:16.050Z,9.30
2023-04-29T23:16:42.750Z,8.43
2023-04-29T23:19:09.773Z,8.57
2023-04-29T23:21:36.463Z,9.07
2023-04-29T23:24:03.852Z,8.43
2023-04-29T23:26:30.679Z,9.15
2023-04-29T23:28:57.761Z,9.30
2023-04-29T23:31:24.655Z,7.90
2023-04-29T23:33:51.710Z,9.02
2023-04-29T23:36:18.456Z,9.32
2023-04-29T23:38:45.501Z,8.85
2023-04-29T23:41:12.190Z,8.70
2023-04-29T23:43:39.709Z,9.50
2023-04-29T23:46:06.591Z,10.20
2023-04-29T23:48:33.663Z,10.98
2023-04-29T23:51:00.482Z,11.00
2023-04-29T23:53:27.544Z,10.88
2023-04-29T23:55:54.267Z,11.27
2023-04-29T23:58:21.260Z,10.52
